<?xml version="1.0" encoding="UTF-8"?>
 <gpx
 xmlns="http://www.topografix.com/GPX/1/1"
 version="1.1"
 creator="Wikipedia"
 xmlns:xsi="http://www.w3.org/2001/XMLSchema-instance"
 xsi:schemaLocation="http://www.topografix.com/GPX/1/1 http://www.topografix.com/GPX/1/1/gpx.xsd">
	<time>2026-09-05T09:45:16Z</time>
	<metadata>
 		<name>gps</name>
 	</metadata>
	<trk>
		<name>exercise</name>
		<trkseg>
			<trkpt lat="54.9469385" lon="82.8879335">
				<time>2026-09-05T09:45:16Z</time>
				<ele>132.385</ele>
			</trkpt>
			<trkpt lat="54.9469385" lon="82.8879335">
				<time>2026-09-05T09:45:21Z</time>
				<ele>132.385</ele>
			</trkpt>
			<trkpt lat="54.9469385" lon="82.8879335">
				<time>2026-09-05T09:45:26Z</time>
				<ele>132.385</ele>
			</trkpt>
			<trkpt lat="54.9469385" lon="82.8879335">
				<time>2026-09-05T09:45:31Z</time>
				<ele>132.385</ele>
			</trkpt>
			<trkpt lat="54.9469385" lon="82.8879335">
				<time>2026-09-05T09:45:36Z</time>
				<ele>132.385</ele>
			</trkpt>
			<trkpt lat="54.9469385" lon="82.8879335">
				<time>2026-09-05T09:45:40Z</time>
				<ele>132.385</ele>
			</trkpt>
			<trkpt lat="54.9469385" lon="82.8879335">
				<time>2026-09-05T09:45:45Z</time>
				<ele>132.385</ele>
			</trkpt>
			<trkpt lat="54.9469385" lon="82.8879335">
				<time>2026-09-05T09:45:50Z</time>
				<ele>132.385</ele>
			</trkpt>
			<trkpt lat="54.9469385" lon="82.8879335">
				<time>2026-09-05T09:45:55Z</time>
				<ele>132.385</ele>
			</trkpt>
			<trkpt lat="54.9469385" lon="82.8879335">
				<time>2026-09-05T09:46:00Z</time>
				<ele>132.385</ele>
			</trkpt>
			<trkpt lat="54.9469385" lon="82.8879335">
				<time>2026-09-05T09:46:05Z</time>
				<ele>132.385</ele>
			</trkpt>
			<trkpt lat="54.9469385" lon="82.8879335">
				<time>2026-09-05T09:46:10Z</time>
				<ele>132.385</ele>
			</trkpt>
			<trkpt lat="54.9469385" lon="82.8879335">
				<time>2026-09-05T09:46:15Z</time>
				<ele>132.385</ele>
			</trkpt>
			<trkpt lat="54.945653955" lon="82.886705016">
				<time>2026-09-05T09:46:24Z</time>
				<ele>132.647</ele>
			</trkpt>
			<trkpt lat="54.945653955" lon="82.886705016">
				<time>2026-09-05T09:46:29Z</time>
				<ele>132.647</ele>
			</trkpt>
			<trkpt lat="54.945653955" lon="82.886705016">
				<time>2026-09-05T09:46:34Z</time>
				<ele>132.647</ele>
			</trkpt>
			<trkpt lat="54.945653955" lon="82.886705016">
				<time>2026-09-05T09:46:39Z</time>
				<ele>132.647</ele>
			</trkpt>
			<trkpt lat="54.945653955" lon="82.886705016">
				<time>2026-09-05T09:46:44Z</time>
				<ele>132.647</ele>
			</trkpt>
			<trkpt lat="54.945653955" lon="82.886705016">
				<time>2026-09-05T09:46:49Z</time>
				<ele>132.647</ele>
			</trkpt>
			<trkpt lat="54.945653955" lon="82.886705016">
				<time>2026-09-05T09:46:54Z</time>
				<ele>132.647</ele>
			</trkpt>
			<trkpt lat="54.945653955" lon="82.886705016">
				<time>2026-09-05T09:46:59Z</time>
				<ele>132.647</ele>
			</trkpt>
			<trkpt lat="54.945653955" lon="82.886705016">
				<time>2026-09-05T09:47:04Z</time>
				<ele>132.647</ele>
			</trkpt>
			<trkpt lat="54.945653955" lon="82.886705016">
				<time>2026-09-05T09:47:09Z</time>
				<ele>132.647</ele>
			</trkpt>
			<trkpt lat="54.945653955" lon="82.886705016">
				<time>2026-09-05T09:47:14Z</time>
				<ele>132.647</ele>
			</trkpt>
			<trkpt lat="54.945653955" lon="82.886705016">
				<time>2026-09-05T09:47:19Z</time>
				<ele>132.647</ele>
			</trkpt>
			<trkpt lat="54.945653955" lon="82.886705016">
				<time>2026-09-05T09:47:24Z</time>
				<ele>132.647</ele>
			</trkpt>
			<trkpt lat="54.943448867" lon="82.886380864">
				<time>2026-09-05T09:47:31Z</time>
				<ele>130.58</ele>
			</trkpt>
			<trkpt lat="54.943448867" lon="82.886380864">
				<time>2026-09-05T09:47:36Z</time>
				<ele>130.58</ele>
			</trkpt>
			<trkpt lat="54.943448867" lon="82.886380864">
				<time>2026-09-05T09:47:41Z</time>
				<ele>130.58</ele>
			</trkpt>
			<trkpt lat="54.943448867" lon="82.886380864">
				<time>2026-09-05T09:47:46Z</time>
				<ele>130.58</ele>
			</trkpt>
			<trkpt lat="54.943448867" lon="82.886380864">
				<time>2026-09-05T09:47:51Z</time>
				<ele>130.58</ele>
			</trkpt>
			<trkpt lat="54.943448867" lon="82.886380864">
				<time>2026-09-05T09:47:56Z</time>
				<ele>130.58</ele>
			</trkpt>
			<trkpt lat="54.943448867" lon="82.886380864">
				<time>2026-09-05T09:48:01Z</time>
				<ele>130.58</ele>
			</trkpt>
			<trkpt lat="54.943448867" lon="82.886380864">
				<time>2026-09-05T09:48:06Z</time>
				<ele>130.58</ele>
			</trkpt>
			<trkpt lat="54.943448867" lon="82.886380864">
				<time>2026-09-05T09:48:11Z</time>
				<ele>130.58</ele>
			</trkpt>
			<trkpt lat="54.943448867" lon="82.886380864">
				<time>2026-09-05T09:48:16Z</time>
				<ele>130.58</ele>
			</trkpt>
			<trkpt lat="54.943448867" lon="82.886380864">
				<time>2026-09-05T09:48:21Z</time>
				<ele>130.58</ele>
			</trkpt>
			<trkpt lat="54.943448867" lon="82.886380864">
				<time>2026-09-05T09:48:26Z</time>
				<ele>130.58</ele>
			</trkpt>
			<trkpt lat="54.943448867" lon="82.886380864">
				<time>2026-09-05T09:48:31Z</time>
				<ele>130.58</ele>
			</trkpt>
			<trkpt lat="54.943020708" lon="82.886072824">
				<time>2026-09-05T09:48:38Z</time>
				<ele>135.77</ele>
			</trkpt>
			<trkpt lat="54.943020708" lon="82.886072824">
				<time>2026-09-05T09:48:43Z</time>
				<ele>135.77</ele>
			</trkpt>
			<trkpt lat="54.943020708" lon="82.886072824">
				<time>2026-09-05T09:48:48Z</time>
				<ele>135.77</ele>
			</trkpt>
			<trkpt lat="54.943020708" lon="82.886072824">
				<time>2026-09-05T09:48:53Z</time>
				<ele>135.77</ele>
			</trkpt>
			<trkpt lat="54.943020708" lon="82.886072824">
				<time>2026-09-05T09:48:58Z</time>
				<ele>135.77</ele>
			</trkpt>
			<trkpt lat="54.943020708" lon="82.886072824">
				<time>2026-09-05T09:49:03Z</time>
				<ele>135.77</ele>
			</trkpt>
			<trkpt lat="54.943020708" lon="82.886072824">
				<time>2026-09-05T09:49:08Z</time>
				<ele>135.77</ele>
			</trkpt>
			<trkpt lat="54.943020708" lon="82.886072824">
				<time>2026-09-05T09:49:13Z</time>
				<ele>135.77</ele>
			</trkpt>
			<trkpt lat="54.943020708" lon="82.886072824">
				<time>2026-09-05T09:49:18Z</time>
				<ele>135.77</ele>
			</trkpt>
			<trkpt lat="54.943020708" lon="82.886072824">
				<time>2026-09-05T09:49:23Z</time>
				<ele>135.77</ele>
			</trkpt>
			<trkpt lat="54.943020708" lon="82.886072824">
				<time>2026-09-05T09:49:28Z</time>
				<ele>135.77</ele>
			</trkpt>
			<trkpt lat="54.943020708" lon="82.886072824">
				<time>2026-09-05T09:49:33Z</time>
				<ele>135.77</ele>
			</trkpt>
			<trkpt lat="54.943020708" lon="82.886072824">
				<time>2026-09-05T09:49:38Z</time>
				<ele>135.77</ele>
			</trkpt>
			<trkpt lat="54.944481465" lon="82.882394391">
				<time>2026-09-05T09:49:45Z</time>
				<ele>130.631</ele>
			</trkpt>
			<trkpt lat="54.944481465" lon="82.882394391">
				<time>2026-09-05T09:49:50Z</time>
				<ele>130.631</ele>
			</trkpt>
			<trkpt lat="54.944481465" lon="82.882394391">
				<time>2026-09-05T09:49:55Z</time>
				<ele>130.631</ele>
			</trkpt>
			<trkpt lat="54.944481465" lon="82.882394391">
				<time>2026-09-05T09:50:00Z</time>
				<ele>130.631</ele>
			</trkpt>
			<trkpt lat="54.944481465" lon="82.882394391">
				<time>2026-09-05T09:50:05Z</time>
				<ele>130.631</ele>
			</trkpt>
			<trkpt lat="54.944481465" lon="82.882394391">
				<time>2026-09-05T09:50:10Z</time>
				<ele>130.631</ele>
			</trkpt>
			<trkpt lat="54.944481465" lon="82.882394391">
				<time>2026-09-05T09:50:15Z</time>
				<ele>130.631</ele>
			</trkpt>
			<trkpt lat="54.944481465" lon="82.882394391">
				<time>2026-09-05T09:50:20Z</time>
				<ele>130.631</ele>
			</trkpt>
			<trkpt lat="54.944481465" lon="82.882394391">
				<time>2026-09-05T09:50:25Z</time>
				<ele>130.631</ele>
			</trkpt>
			<trkpt lat="54.944481465" lon="82.882394391">
				<time>2026-09-05T09:50:30Z</time>
				<ele>130.631</ele>
			</trkpt>
			<trkpt lat="54.944481465" lon="82.882394391">
				<time>2026-09-05T09:50:35Z</time>
				<ele>130.631</ele>
			</trkpt>
			<trkpt lat="54.944481465" lon="82.882394391">
				<time>2026-09-05T09:50:40Z</time>
				<ele>130.631</ele>
			</trkpt>
			<trkpt lat="54.944481465" lon="82.882394391">
				<time>2026-09-05T09:50:45Z</time>
				<ele>130.631</ele>
			</trkpt>
			<trkpt lat="54.945496774" lon="82.880941132">
				<time>2026-09-05T09:50:54Z</time>
				<ele>138.424</ele>
			</trkpt>
			<trkpt lat="54.945496774" lon="82.880941132">
				<time>2026-09-05T09:50:59Z</time>
				<ele>138.424</ele>
			</trkpt>
			<trkpt lat="54.945496774" lon="82.880941132">
				<time>2026-09-05T09:51:04Z</time>
				<ele>138.424</ele>
			</trkpt>
			<trkpt lat="54.945496774" lon="82.880941132">
				<time>2026-09-05T09:51:09Z</time>
				<ele>138.424</ele>
			</trkpt>
			<trkpt lat="54.945496774" lon="82.880941132">
				<time>2026-09-05T09:51:14Z</time>
				<ele>138.424</ele>
			</trkpt>
			<trkpt lat="54.945496774" lon="82.880941132">
				<time>2026-09-05T09:51:19Z</time>
				<ele>138.424</ele>
			</trkpt>
			<trkpt lat="54.945496774" lon="82.880941132">
				<time>2026-09-05T09:51:24Z</time>
				<ele>138.424</ele>
			</trkpt>
			<trkpt lat="54.945496774" lon="82.880941132">
				<time>2026-09-05T09:51:29Z</time>
				<ele>138.424</ele>
			</trkpt>
			<trkpt lat="54.945496774" lon="82.880941132">
				<time>2026-09-05T09:51:34Z</time>
				<ele>138.424</ele>
			</trkpt>
			<trkpt lat="54.945496774" lon="82.880941132">
				<time>2026-09-05T09:51:39Z</time>
				<ele>138.424</ele>
			</trkpt>
			<trkpt lat="54.945496774" lon="82.880941132">
				<time>2026-09-05T09:51:44Z</time>
				<ele>138.424</ele>
			</trkpt>
			<trkpt lat="54.945496774" lon="82.880941132">
				<time>2026-09-05T09:51:49Z</time>
				<ele>138.424</ele>
			</trkpt>
			<trkpt lat="54.945496774" lon="82.880941132">
				<time>2026-09-05T09:51:54Z</time>
				<ele>138.424</ele>
			</trkpt>
			<trkpt lat="54.945880016" lon="82.880956578">
				<time>2026-09-05T09:52:03Z</time>
				<ele>137.026</ele>
			</trkpt>
			<trkpt lat="54.945880016" lon="82.880956578">
				<time>2026-09-05T09:52:08Z</time>
				<ele>137.026</ele>
			</trkpt>
			<trkpt lat="54.945880016" lon="82.880956578">
				<time>2026-09-05T09:52:13Z</time>
				<ele>137.026</ele>
			</trkpt>
			<trkpt lat="54.945880016" lon="82.880956578">
				<time>2026-09-05T09:52:18Z</time>
				<ele>137.026</ele>
			</trkpt>
			<trkpt lat="54.945880016" lon="82.880956578">
				<time>2026-09-05T09:52:23Z</time>
				<ele>137.026</ele>
			</trkpt>
			<trkpt lat="54.945880016" lon="82.880956578">
				<time>2026-09-05T09:52:28Z</time>
				<ele>137.026</ele>
			</trkpt>
			<trkpt lat="54.945880016" lon="82.880956578">
				<time>2026-09-05T09:52:33Z</time>
				<ele>137.026</ele>
			</trkpt>
			<trkpt lat="54.945880016" lon="82.880956578">
				<time>2026-09-05T09:52:38Z</time>
				<ele>137.026</ele>
			</trkpt>
			<trkpt lat="54.945880016" lon="82.880956578">
				<time>2026-09-05T09:52:43Z</time>
				<ele>137.026</ele>
			</trkpt>
			<trkpt lat="54.945880016" lon="82.880956578">
				<time>2026-09-05T09:52:48Z</time>
				<ele>137.026</ele>
			</trkpt>
			<trkpt lat="54.945880016" lon="82.880956578">
				<time>2026-09-05T09:52:53Z</time>
				<ele>137.026</ele>
			</trkpt>
			<trkpt lat="54.945880016" lon="82.880956578">
				<time>2026-09-05T09:52:58Z</time>
				<ele>137.026</ele>
			</trkpt>
			<trkpt lat="54.945880016" lon="82.880956578">
				<time>2026-09-05T09:53:03Z</time>
				<ele>137.026</ele>
			</trkpt>
			<trkpt lat="54.944364883" lon="82.882218027">
				<time>2026-09-05T09:53:12Z</time>
				<ele>128.646</ele>
			</trkpt>
			<trkpt lat="54.944364883" lon="82.882218027">
				<time>2026-09-05T09:53:17Z</time>
				<ele>128.646</ele>
			</trkpt>
			<trkpt lat="54.944364883" lon="82.882218027">
				<time>2026-09-05T09:53:22Z</time>
				<ele>128.646</ele>
			</trkpt>
			<trkpt lat="54.944364883" lon="82.882218027">
				<time>2026-09-05T09:53:27Z</time>
				<ele>128.646</ele>
			</trkpt>
			<trkpt lat="54.944364883" lon="82.882218027">
				<time>2026-09-05T09:53:32Z</time>
				<ele>128.646</ele>
			</trkpt>
			<trkpt lat="54.944364883" lon="82.882218027">
				<time>2026-09-05T09:53:37Z</time>
				<ele>128.646</ele>
			</trkpt>
			<trkpt lat="54.944364883" lon="82.882218027">
				<time>2026-09-05T09:53:42Z</time>
				<ele>128.646</ele>
			</trkpt>
			<trkpt lat="54.944364883" lon="82.882218027">
				<time>2026-09-05T09:53:47Z</time>
				<ele>128.646</ele>
			</trkpt>
			<trkpt lat="54.944364883" lon="82.882218027">
				<time>2026-09-05T09:53:52Z</time>
				<ele>128.646</ele>
			</trkpt>
			<trkpt lat="54.944364883" lon="82.882218027">
				<time>2026-09-05T09:53:57Z</time>
				<ele>128.646</ele>
			</trkpt>
			<trkpt lat="54.944364883" lon="82.882218027">
				<time>2026-09-05T09:54:02Z</time>
				<ele>128.646</ele>
			</trkpt>
		</trkseg>
	</trk>
</gpx>
